createdAt,value
2022-10-28T00:01:09.776Z,101388.78
2022-10-28T00:03:42.076Z,101383.50
2022-10-28T00:06:14.716Z,101383.78
2022-10-28T00:08:41.934Z,101370.72
2022-10-28T00:11:14.162Z,101387.78
2022-10-28T00:13:41.504Z,101383.09
2022-10-28T00:16:14.256Z,101382.72
2022-10-28T00:18:41.700Z,101373.13
2022-10-28T00:21:12.895Z,101372.97
2022-10-28T00:23:40.109Z,101365.22
2022-10-28T00:26:19.232Z,101354.13
2022-10-28T00:28:54.659Z,101369.50
2022-10-28T00:31:23.927Z,101359.94
2022-10-28T00:33:51.014Z,101359.25
2022-10-28T00:36:25.408Z,101361.59
2022-10-28T00:38:53.651Z,101357.44
2022-10-28T00:41:23.847Z,101354.94
2022-10-28T00:43:54.312Z,101360.63
2022-10-28T00:46:44.683Z,101390.44
2022-10-28T00:49:22.415Z,101388.63
2022-10-28T00:51:54.117Z,101393.91
2022-10-28T00:54:21.500Z,101379.63
2022-10-28T00:56:51.664Z,101359.25
2022-10-28T00:59:27.846Z,101378.34
2022-10-28T01:01:55.011Z,101377.78
2022-10-28T01:04:22.998Z,101370.69
2022-10-28T01:06:51.260Z,101374.81
2022-10-28T01:09:17.734Z,101348.44
2022-10-28T01:11:48.857Z,101358.75
2022-10-28T01:14:17.523Z,101351.63
2022-10-28T01:16:57.205Z,101345.31
2022-10-28T01:19:51.468Z,101362.59
2022-10-28T01:22:25.810Z,101358.19
2022-10-28T01:25:03.776Z,101367.75
2022-10-28T01:27:53.117Z,101369.44
2022-10-28T01:30:23.281Z,101368.72
2022-10-28T01:33:18.951Z,101366.09
2022-10-28T01:36:02.856Z,101378.22
2022-10-28T01:38:54.560Z,101372.41
2022-10-28T01:41:34.140Z,101372.41
2022-10-28T01:44:14.288Z,101344.44
2022-10-28T01:46:43.548Z,101356.34
2022-10-28T01:49:30.628Z,101364.88
2022-10-28T01:52:03.341Z,101354.31
2022-10-28T01:54:34.018Z,101360.81
2022-10-28T01:57:03.285Z,101359.69
2022-10-28T01:59:30.772Z,101364.97
2022-10-28T02:01:57.673Z,101357.34
2022-10-28T02:04:24.264Z,101348.75
2022-10-28T02:06:55.789Z,101353.03
2022-10-28T02:09:30.003Z,101350.69
2022-10-28T02:12:24.890Z,101349.31
2022-10-28T02:15:09.576Z,101358.94
2022-10-28T02:18:09.499Z,101358.53
2022-10-28T02:20:58.998Z,101342.59
2022-10-28T02:23:33.942Z,101339.28
2022-10-28T02:26:00.398Z,101345.16
2022-10-28T02:28:41.391Z,101331.06
2022-10-28T02:31:20.640Z,101322.03
2022-10-28T02:33:52.230Z,101323.97
2022-10-28T02:36:22.108Z,101326.72
2022-10-28T02:38:58.157Z,101316.34
2022-10-28T02:41:37.272Z,101313.84
2022-10-28T02:44:09.664Z,101311.50
2022-10-28T02:46:38.773Z,101315.63
2022-10-28T02:49:10.028Z,101319.81
2022-10-28T02:51:45.049Z,101327.88
2022-10-28T02:54:31.777Z,101320.22
2022-10-28T02:57:06.787Z,101316.78
2022-10-28T02:59:33.290Z,101321.34
2022-10-28T03:01:59.891Z,101316.50
2022-10-28T03:04:26.653Z,101309.72
2022-10-28T03:06:53.121Z,101314.84
2022-10-28T03:09:19.596Z,101311.66
2022-10-28T03:11:46.061Z,101307.06
2022-10-28T03:14:14.710Z,101303.75
2022-10-28T03:16:42.236Z,101309.97
2022-10-28T03:21:40.127Z,101289.34
2022-10-28T03:24:06.982Z,101294.16
2022-10-28T03:26:33.429Z,101287.38
2022-10-28T03:28:59.911Z,101296.38
2022-10-28T03:31:26.411Z,101291.81
2022-10-28T03:33:52.888Z,101302.47
2022-10-28T03:36:19.354Z,101299.41
2022-10-28T03:38:45.778Z,101297.19
2022-10-28T03:41:12.234Z,101285.28
2022-10-28T03:43:38.663Z,101290.81
2022-10-28T03:46:05.235Z,101271.81
2022-10-28T03:48:31.698Z,101282.34
2022-10-28T03:50:58.146Z,101280.69
2022-10-28T03:53:27.586Z,101270.94
2022-10-28T03:55:59.290Z,101285.88
2022-10-28T03:58:26.268Z,101286.16
2022-10-28T04:00:53.570Z,101279.06
2022-10-28T04:03:21.852Z,101284.59
2022-10-28T04:05:48.895Z,101280.13
2022-10-28T04:08:16.764Z,101285.63
2022-10-28T04:10:47.321Z,101279.00
2022-10-28T04:13:14.709Z,101275.69
2022-10-28T04:15:41.205Z,101278.75
2022-10-28T04:18:08.051Z,101285.41
2022-10-28T04:20:34.859Z,101294.16
2022-10-28T04:23:01.683Z,101302.78
2022-10-28T04:25:28.749Z,101301.53
2022-10-28T04:27:55.670Z,101300.84
2022-10-28T04:30:22.447Z,101300.69
2022-10-28T04:32:48.862Z,101293.59
2022-10-28T04:35:15.467Z,101304.56
2022-10-28T04:37:41.923Z,101299.00
2022-10-28T04:40:09.474Z,101298.72
2022-10-28T04:42:35.926Z,101298.72
2022-10-28T04:45:02.395Z,101304.84
2022-10-28T04:47:28.887Z,101295.28
2022-10-28T04:49:55.346Z,101310.22
2022-10-28T04:52:21.791Z,101297.59
2022-10-28T04:54:48.238Z,101296.50
2022-10-28T04:57:14.716Z,101296.63
2022-10-28T04:59:41.204Z,101296.63
2022-10-28T05:02:07.860Z,101292.34
2022-10-28T05:04:34.400Z,101297.88
2022-10-28T05:07:00.898Z,101291.75
2022-10-28T05:09:27.342Z,101272.63
2022-10-28T05:11:54.382Z,101292.88
2022-10-28T05:14:20.881Z,101293.00
2022-10-28T05:16:48.076Z,101306.03
2022-10-28T05:19:14.587Z,101298.97
2022-10-28T05:21:41.004Z,101308.66
2022-10-28T05:24:07.633Z,101305.88
2022-10-28T05:26:34.116Z,101308.50
2022-10-28T05:29:00.603Z,101301.00
2022-10-28T05:31:27.071Z,101303.53
2022-10-28T05:33:53.548Z,101304.66
2022-10-28T05:36:20.078Z,101310.75
2022-10-28T05:38:46.553Z,101301.06
2022-10-28T05:41:13.074Z,101297.47
2022-10-28T05:43:39.582Z,101299.81
2022-10-28T05:46:06.128Z,101291.69
2022-10-28T05:48:32.585Z,101290.16
2022-10-28T05:50:59.033Z,101298.22
2022-10-28T05:53:25.470Z,101267.13
2022-10-28T05:55:51.887Z,101291.13
2022-10-28T05:58:18.339Z,101291.13
2022-10-28T06:00:44.870Z,101293.63
2022-10-28T06:03:12.312Z,101301.53
2022-10-28T06:05:45.956Z,101306.91
2022-10-28T06:08:13.365Z,101297.22
2022-10-28T06:10:40.894Z,101293.25
2022-10-28T06:13:07.422Z,101300.63
2022-10-28T06:15:34.058Z,101300.91
2022-10-28T06:18:00.493Z,101296.78
2022-10-28T06:20:26.943Z,101300.38
2022-10-28T06:22:55.492Z,101313.84
2022-10-28T06:25:23.936Z,101303.47
2022-10-28T06:27:58.549Z,101305.41
2022-10-28T06:30:26.427Z,101300.53
2022-10-28T06:32:56.354Z,101317.63
2022-10-28T06:35:22.979Z,101311.22
2022-10-28T06:37:56.152Z,101309.84
2022-10-28T06:40:25.086Z,101298.06
2022-10-28T06:43:04.710Z,101302.91
2022-10-28T06:45:32.932Z,101316.50
2022-10-28T06:48:04.298Z,101310.09
2022-10-28T06:50:31.312Z,101303.72
2022-10-28T06:52:58.640Z,101311.63
2022-10-28T06:55:26.210Z,101315.81
2022-10-28T06:57:53.390Z,101313.16
2022-10-28T07:00:20.199Z,101308.16
2022-10-28T07:02:51.236Z,101315.63
2022-10-28T07:05:17.774Z,101309.53
2022-10-28T07:07:44.228Z,101310.09
2022-10-28T07:10:10.729Z,101312.59
2022-10-28T07:12:37.459Z,101315.66
2022-10-28T07:15:04.477Z,101316.91
2022-10-28T07:17:30.938Z,101327.69
2022-10-28T07:19:57.423Z,101332.66
2022-10-28T07:22:25.749Z,101338.19
2022-10-28T07:24:52.363Z,101325.41
2022-10-28T07:27:19.013Z,101325.53
2022-10-28T07:29:45.395Z,101335.34
2022-10-28T07:32:11.880Z,101341.16
2022-10-28T07:34:38.363Z,101335.31
2022-10-28T07:37:05.976Z,101334.88
2022-10-28T07:39:32.602Z,101339.72
2022-10-28T07:42:01.160Z,101349.63
2022-10-28T07:44:27.706Z,101357.19
2022-10-28T07:46:57.219Z,101363.75
2022-10-28T07:49:25.197Z,101349.84
2022-10-28T07:51:51.764Z,101364.25
2022-10-28T07:54:18.263Z,101360.84
2022-10-28T07:56:44.910Z,101364.28
2022-10-28T07:59:11.576Z,101363.22
2022-10-28T08:01:38.238Z,101359.91
2022-10-28T08:04:04.954Z,101357.66
2022-10-28T08:06:31.739Z,101343.63
2022-10-28T08:08:58.215Z,101354.00
2022-10-28T08:11:24.832Z,101346.16
2022-10-28T08:13:52.376Z,101325.94
2022-10-28T08:16:19.903Z,101351.13
2022-10-28T08:18:46.515Z,101342.69
2022-10-28T08:21:14.182Z,101346.44
2022-10-28T08:23:41.718Z,101356.19
2022-10-28T08:26:08.439Z,101355.53
2022-10-28T08:28:34.887Z,101348.88
2022-10-28T08:31:08.590Z,101342.47
2022-10-28T08:33:38.042Z,101348.16
2022-10-28T08:36:05.751Z,101352.81
2022-10-28T08:38:32.384Z,101338.72
2022-10-28T08:41:18.042Z,101322.50
2022-10-28T08:43:57.889Z,101347.53
2022-10-28T08:46:43.269Z,101341.06
2022-10-28T08:49:14.287Z,101336.69
2022-10-28T08:52:00.789Z,101351.09
2022-10-28T08:54:30.019Z,101335.56
2022-10-28T08:57:00.612Z,101328.47
2022-10-28T08:59:36.886Z,101330.94
2022-10-28T09:02:11.779Z,101332.56
2022-10-28T09:04:39.641Z,101322.66
2022-10-28T09:07:10.699Z,101320.91
2022-10-28T09:09:38.425Z,101317.44
2022-10-28T09:12:11.122Z,101326.56
2022-10-28T09:14:53.048Z,101325.03
2022-10-28T09:17:25.574Z,101324.59
2022-10-28T09:20:19.021Z,101317.63
2022-10-28T09:22:54.819Z,101316.91
2022-10-28T09:25:31.976Z,101318.50
2022-10-28T09:28:04.541Z,101334.59
2022-10-28T09:30:46.556Z,101316.75
2022-10-28T09:33:34.359Z,101331.13
2022-10-28T09:36:03.068Z,101314.47
2022-10-28T09:38:39.924Z,101321.34
2022-10-28T09:41:21.626Z,101323.66
2022-10-28T09:44:13.806Z,101322.28
2022-10-28T09:46:40.814Z,101323.91
2022-10-28T09:49:17.902Z,101317.69
2022-10-28T09:51:52.703Z,101322.06
2022-10-28T09:54:49.173Z,101319.22
2022-10-28T09:57:17.425Z,101327.50
2022-10-28T09:59:44.716Z,101321.25
2022-10-28T10:02:32.591Z,101328.50
2022-10-28T10:05:01.638Z,101323.91
2022-10-28T10:08:07.276Z,101324.91
2022-10-28T10:10:44.752Z,101321.13
2022-10-28T10:13:13.391Z,101328.31
2022-10-28T10:15:45.690Z,101329.03
2022-10-28T10:18:42.222Z,101332.00
2022-10-28T10:21:08.725Z,101322.19
2022-10-28T10:23:37.414Z,101329.53
2022-10-28T10:26:14.510Z,101328.78
2022-10-28T10:28:51.564Z,101328.75
2022-10-28T10:31:27.285Z,101334.94
2022-10-28T10:33:57.329Z,101328.34
2022-10-28T10:36:28.243Z,101320.38
2022-10-28T10:38:57.380Z,101328.31
2022-10-28T10:41:44.516Z,101313.75
2022-10-28T10:44:23.163Z,101323.81
2022-10-28T10:47:06.450Z,101319.06
2022-10-28T10:49:35.036Z,101320.66
2022-10-28T10:52:15.627Z,101320.75
2022-10-28T10:54:56.055Z,101320.84
2022-10-28T10:57:24.483Z,101305.88
2022-10-28T10:59:53.493Z,101318.75
2022-10-28T11:02:22.938Z,101311.53
2022-10-28T11:04:52.221Z,101311.97
2022-10-28T11:07:18.696Z,101307.94
2022-10-28T11:09:48.915Z,101306.03
2022-10-28T11:12:28.388Z,101307.13
2022-10-28T11:15:00.579Z,101303.16
2022-10-28T11:17:36.273Z,101301.34
2022-10-28T11:20:24.986Z,101305.06
2022-10-28T11:23:10.222Z,101289.00
2022-10-28T11:25:50.570Z,101281.38
2022-10-28T11:28:16.961Z,101275.63
2022-10-28T11:31:22.509Z,101282.41
2022-10-28T11:33:55.329Z,101277.44
2022-10-28T11:36:37.307Z,101274.88
2022-10-28T11:39:20.251Z,101275.00
2022-10-28T11:41:49.404Z,101268.78
2022-10-28T11:44:31.163Z,101268.78
2022-10-28T11:47:16.336Z,101260.97
2022-10-28T11:50:08.407Z,101260.25
2022-10-28T11:52:45.295Z,101277.59
2022-10-28T11:55:22.133Z,101249.25
2022-10-28T11:58:08.535Z,101262.97
2022-10-28T12:00:50.103Z,101262.31
2022-10-28T12:03:27.952Z,101265.38
2022-10-28T12:06:22.154Z,101251.75
2022-10-28T12:09:37.047Z,101239.53
2022-10-28T12:12:29.626Z,101243.59
2022-10-28T12:15:17.188Z,101228.09
2022-10-28T12:17:59.044Z,101245.28
2022-10-28T12:20:38.945Z,101239.25
2022-10-28T12:23:15.154Z,101233.63
2022-10-28T12:25:45.043Z,101239.28
2022-10-28T12:28:33.894Z,101243.13
2022-10-28T12:31:02.836Z,101234.50
2022-10-28T12:33:39.805Z,101239.31
2022-10-28T12:36:09.036Z,101237.81
2022-10-28T12:38:58.602Z,101236.91
2022-10-28T12:41:27.801Z,101226.69
2022-10-28T12:44:09.409Z,101238.88
2022-10-28T12:47:03.219Z,101240.69
2022-10-28T12:49:44.963Z,101242.59
2022-10-28T12:52:24.873Z,101247.59
2022-10-28T12:55:03.419Z,101245.81
2022-10-28T12:57:34.192Z,101237.78
2022-10-28T13:00:15.915Z,101244.06
2022-10-28T13:03:01.447Z,101246.47
2022-10-28T13:05:37.289Z,101247.75
2022-10-28T13:08:16.939Z,101252.72
2022-10-28T13:10:57.621Z,101255.41
2022-10-28T13:13:47.913Z,101259.47
2022-10-28T13:16:20.038Z,101264.59
2022-10-28T13:19:20.639Z,101268.16
2022-10-28T13:21:54.041Z,101267.25
2022-10-28T13:24:40.269Z,101263.97
2022-10-28T13:27:13.364Z,101278.44
2022-10-28T13:29:43.135Z,101287.28
2022-10-28T13:32:38.655Z,101287.22
2022-10-28T13:35:26.423Z,101273.41
2022-10-28T13:37:55.223Z,101288.88
2022-10-28T13:40:30.945Z,101276.75
2022-10-28T13:43:01.642Z,101268.78
2022-10-28T13:45:50.381Z,101280.75
2022-10-28T13:48:28.823Z,101273.34
2022-10-28T13:51:15.486Z,101281.59
2022-10-28T13:53:45.002Z,101291.03
2022-10-28T13:56:16.793Z,101295.59
2022-10-28T13:58:54.922Z,101293.31
2022-10-28T14:02:28.461Z,101292.88
2022-10-28T14:04:55.763Z,101298.00
2022-10-28T14:07:27.889Z,101285.78
2022-10-28T14:09:58.659Z,101300.81
2022-10-28T14:12:30.017Z,101299.34
2022-10-28T14:15:01.788Z,101296.47
2022-10-28T14:17:53.565Z,101306.31
2022-10-28T14:20:26.383Z,101314.91
2022-10-28T14:22:54.274Z,101311.44
2022-10-28T14:25:43.778Z,101321.53
2022-10-28T14:28:31.580Z,101328.72
2022-10-28T14:31:13.220Z,101330.16
2022-10-28T14:33:42.685Z,101326.84
2022-10-28T14:36:34.218Z,101329.09
2022-10-28T14:39:03.824Z,101327.84
2022-10-28T14:41:51.924Z,101323.53
2022-10-28T14:45:05.575Z,101330.50
2022-10-28T14:48:09.786Z,101335.41
2022-10-28T14:50:48.797Z,101348.13
2022-10-28T14:53:35.799Z,101354.59
2022-10-28T14:56:09.537Z,101363.84
2022-10-28T14:58:44.461Z,101357.84
2022-10-28T15:01:16.963Z,101352.91
2022-10-28T15:03:56.699Z,101362.25
2022-10-28T15:06:37.190Z,101373.22
2022-10-28T15:09:25.649Z,101381.69
2022-10-28T15:12:05.622Z,101388.41
2022-10-28T15:14:40.559Z,101387.00
2022-10-28T15:17:39.320Z,101390.97
2022-10-28T15:20:25.889Z,101388.16
2022-10-28T15:22:54.364Z,101388.94
2022-10-28T15:25:22.550Z,101385.00
2022-10-28T15:30:23.612Z,101394.38
2022-10-28T15:32:51.556Z,101399.06
2022-10-28T15:35:27.195Z,101396.81
2022-10-28T15:38:00.304Z,101393.69
2022-10-28T15:40:35.289Z,101404.50
2022-10-28T15:43:03.593Z,101396.06
2022-10-28T15:45:32.868Z,101399.13
2022-10-28T15:48:01.638Z,101395.53
2022-10-28T15:50:30.314Z,101409.59
2022-10-28T15:53:12.492Z,101418.34
2022-10-28T15:58:32.751Z,101403.53
2022-10-28T16:00:59.422Z,101417.00
2022-10-28T16:03:42.370Z,101407.28
2022-10-28T16:06:31.748Z,101413.88
2022-10-28T16:09:04.920Z,101414.41
2022-10-28T16:11:33.622Z,101426.59
2022-10-28T16:14:03.516Z,101424.66
2022-10-28T16:16:30.874Z,101437.97
2022-10-28T16:19:07.962Z,101432.34
2022-10-28T16:21:35.988Z,101432.22
2022-10-28T16:24:02.974Z,101431.13
2022-10-28T16:26:31.624Z,101438.97
2022-10-28T16:28:58.091Z,101433.31
2022-10-28T16:31:28.513Z,101434.56
2022-10-28T16:33:55.132Z,101429.69
2022-10-28T16:36:21.596Z,101421.38
2022-10-28T16:38:48.073Z,101427.53
2022-10-28T16:41:17.404Z,101444.84
2022-10-28T16:43:44.403Z,101439.56
2022-10-28T16:46:12.623Z,101445.69
2022-10-28T16:48:39.612Z,101446.38
2022-10-28T16:51:12.697Z,101442.91
2022-10-28T16:53:39.377Z,101448.09
2022-10-28T16:56:08.665Z,101430.88
2022-10-28T16:58:39.995Z,101450.44
2022-10-28T17:01:06.542Z,101467.06
2022-10-28T17:03:33.154Z,101454.66
2022-10-28T17:05:59.605Z,101457.97
2022-10-28T17:08:48.897Z,101455.31
2022-10-28T17:11:16.225Z,101473.91
2022-10-28T17:13:42.769Z,101468.78
2022-10-28T17:16:09.241Z,101465.00
2022-10-28T17:18:35.754Z,101463.81
2022-10-28T17:21:03.437Z,101475.13
2022-10-28T17:23:29.958Z,101474.13
2022-10-28T17:26:01.146Z,101479.59
2022-10-28T17:28:27.641Z,101475.66
2022-10-28T17:30:54.143Z,101477.47
2022-10-28T17:33:20.717Z,101475.81
2022-10-28T17:35:47.215Z,101477.50
2022-10-28T17:38:13.690Z,101472.03
2022-10-28T17:40:40.181Z,101470.03
2022-10-28T17:43:06.647Z,101469.31
2022-10-28T17:45:33.268Z,101479.91
2022-10-28T17:47:59.949Z,101486.38
2022-10-28T17:50:26.520Z,101490.16
2022-10-28T17:52:53.505Z,101495.94
2022-10-28T17:55:20.245Z,101496.25
2022-10-28T17:57:47.232Z,101500.50
2022-10-28T18:00:14.503Z,101502.28
2022-10-28T18:02:41.169Z,101518.97
2022-10-28T18:05:08.158Z,101513.22
2022-10-28T18:07:34.740Z,101522.16
2022-10-28T18:10:01.231Z,101517.16
2022-10-28T18:12:27.715Z,101531.69
2022-10-28T18:14:54.189Z,101534.13
2022-10-28T18:17:20.692Z,101525.91
2022-10-28T18:19:47.226Z,101525.84
2022-10-28T18:22:13.757Z,101522.69
2022-10-28T18:24:40.439Z,101540.38
2022-10-28T18:27:06.933Z,101543.50
2022-10-28T18:29:33.483Z,101518.69
2022-10-28T18:32:04.033Z,101522.84
2022-10-28T18:34:31.490Z,101526.09
2022-10-28T18:36:58.117Z,101532.69
2022-10-28T18:39:24.674Z,101527.31
2022-10-28T18:41:51.467Z,101543.06
2022-10-28T18:44:21.561Z,101540.28
2022-10-28T18:46:48.150Z,101539.06
2022-10-28T18:49:14.661Z,101541.47
2022-10-28T18:51:41.124Z,101532.88
2022-10-28T18:54:07.664Z,101539.28
2022-10-28T18:56:34.354Z,101532.91
2022-10-28T18:59:03.383Z,101531.63
2022-10-28T19:01:31.630Z,101543.03
2022-10-28T19:04:00.879Z,101534.41
2022-10-28T19:06:32.039Z,101545.81
2022-10-28T19:09:01.080Z,101546.38
2022-10-28T19:11:30.263Z,101547.38
2022-10-28T19:14:01.332Z,101548.13
2022-10-28T19:16:28.790Z,101555.75
2022-10-28T19:18:59.468Z,101557.84
2022-10-28T19:21:27.514Z,101562.44
2022-10-28T19:23:54.323Z,101565.38
2022-10-28T19:26:22.858Z,101559.25
2022-10-28T19:28:50.284Z,101563.03
2022-10-28T19:31:19.326Z,101549.72
2022-10-28T19:33:46.179Z,101568.47
2022-10-28T19:36:24.384Z,101567.25
2022-10-28T19:38:53.656Z,101592.06
2022-10-28T19:41:23.254Z,101599.19
2022-10-28T19:43:58.304Z,101597.66
2022-10-28T19:46:26.680Z,101605.72
2022-10-28T19:48:55.735Z,101599.22
2022-10-28T19:51:28.067Z,101599.50
2022-10-28T19:53:57.040Z,101601.47
2022-10-28T19:56:24.353Z,101600.38
2022-10-28T19:58:53.357Z,101610.81
2022-10-28T20:01:24.800Z,101608.16
2022-10-28T20:03:52.356Z,101605.34
2022-10-28T20:06:21.033Z,101607.72
2022-10-28T20:08:49.331Z,101611.06
2022-10-28T20:11:24.771Z,101618.00
2022-10-28T20:13:58.024Z,101606.44
2022-10-28T20:16:25.760Z,101607.72
2022-10-28T20:18:54.170Z,101605.78
2022-10-28T20:21:21.919Z,101611.06
2022-10-28T20:26:17.835Z,101622.31
2022-10-28T20:28:44.272Z,101626.78
2022-10-28T20:31:13.790Z,101632.72
2022-10-28T20:33:42.474Z,101633.56
2022-10-28T20:36:28.578Z,101638.84
2022-10-28T20:38:57.255Z,101644.13
2022-10-28T20:41:24.780Z,101646.63
2022-10-28T20:43:52.466Z,101657.88
2022-10-28T20:46:20.375Z,101651.91
2022-10-28T20:48:47.381Z,101649.69
2022-10-28T20:51:13.915Z,101635.81
2022-10-28T20:53:40.546Z,101658.31
2022-10-28T20:56:08.040Z,101660.25
2022-10-28T20:58:35.445Z,101665.84
2022-10-28T21:01:12.956Z,101671.38
2022-10-28T21:03:42.145Z,101663.75
2022-10-28T21:06:08.944Z,101668.47
2022-10-28T21:08:35.897Z,101660.00
2022-10-28T21:11:06.637Z,101663.63
2022-10-28T21:13:33.585Z,101665.59
2022-10-28T21:16:04.707Z,101660.56
2022-10-28T21:18:31.603Z,101655.53
2022-10-28T21:20:59.790Z,101655.66
2022-10-28T21:23:28.110Z,101661.09
2022-10-28T21:26:02.461Z,101665.41
2022-10-28T21:28:30.472Z,101669.03
2022-10-28T21:31:18.035Z,101667.50
2022-10-28T21:33:45.249Z,101666.94
2022-10-28T21:36:17.579Z,101669.16
2022-10-28T21:38:44.475Z,101662.38
2022-10-28T21:41:16.250Z,101661.09
2022-10-28T21:43:44.643Z,101655.66
2022-10-28T21:46:11.631Z,101667.50
2022-10-28T21:48:38.268Z,101670.41
2022-10-28T21:51:10.119Z,101670.53
2022-10-28T21:53:40.472Z,101673.19
2022-10-28T21:56:19.465Z,101672.75
2022-10-28T21:58:47.841Z,101663.72
2022-10-28T22:01:20.616Z,101663.88
2022-10-28T22:03:47.272Z,101661.09
2022-10-28T22:06:13.988Z,101668.72
2022-10-28T22:08:40.591Z,101670.69
2022-10-28T22:11:11.506Z,101673.44
2022-10-28T22:13:38.349Z,101668.56
2022-10-28T22:16:07.584Z,101669.66
2022-10-28T22:18:36.631Z,101671.63
2022-10-28T22:21:07.111Z,101669.50
2022-10-28T22:23:34.177Z,101680.22
2022-10-28T22:26:02.233Z,101682.97
2022-10-28T22:28:28.812Z,101678.69
2022-10-28T22:31:02.894Z,101673.81
2022-10-28T22:33:29.333Z,101683.66
2022-10-28T22:36:07.436Z,101682.94
2022-10-28T22:38:33.959Z,101671.59
2022-10-28T22:41:04.403Z,101670.88
2022-10-28T22:43:31.024Z,101668.38
2022-10-28T22:46:01.218Z,101672.97
2022-10-28T22:48:28.094Z,101673.78
2022-10-28T22:50:55.238Z,101663.22
2022-10-28T22:53:21.887Z,101666.00
2022-10-28T22:55:48.630Z,101666.00
2022-10-28T22:58:17.840Z,101671.41
2022-10-28T23:00:45.020Z,101662.66
2022-10-28T23:03:12.359Z,101668.09
2022-10-28T23:05:39.723Z,101674.31
2022-10-28T23:08:07.051Z,101677.22
2022-10-28T23:10:33.872Z,101669.44
2022-10-28T23:13:02.115Z,101669.84
2022-10-28T23:15:30.225Z,101668.16
2022-10-28T23:17:57.277Z,101680.38
2022-10-28T23:20:25.150Z,101664.72
2022-10-28T23:22:55.273Z,101670.22
2022-10-28T23:25:21.684Z,101668.69
2022-10-28T23:27:48.117Z,101677.44
2022-10-28T23:30:14.588Z,101676.03
2022-10-28T23:32:41.031Z,101681.41
2022-10-28T23:35:07.790Z,101675.19
2022-10-28T23:37:34.309Z,101690.16
2022-10-28T23:40:00.870Z,101697.09
2022-10-28T23:42:28.118Z,101700.56
2022-10-28T23:44:54.504Z,101699.59
2022-10-28T23:47:21.013Z,101704.03
2022-10-28T23:49:47.478Z,101701.41
2022-10-28T23:52:13.975Z,101687.78
2022-10-28T23:54:40.408Z,101691.25
2022-10-28T23:57:08.375Z,101693.19
2022-10-28T23:59:34.989Z,101689.03
